Clarksville, Michigan
Current Conditions -  °F | °C
As of 6:56 AM on Saturday 01 Nov 2014 (Local Time) from KY70 Reporting Station
Overcast Overcast  
Wind Chill: 18°   Ceiling: 2900
Heat Index: 28°   Visibility: 10mi
Dew Point: 19°   Wind: 12mph
Humidity: 69%   Direction: 10°N
Pressure: 30.35"   Gusts: NA
Location:  42.84°N, 85.24°W
Report Text: KY70 011056Z AUTO 01010KT 10SM OVC029 M02/M07 A3035 RMK AO2
Loading
Personal Weather Stations






























Interactive Weather Map
Tropical Storm Tracking
New forecast layout! Learn more

10-Day Weather Forecast

Advertisements
Track Severe Weather on mobile